createdAt,value
2022-09-28T00:03:58.852Z,9.70
2022-09-28T00:10:00.579Z,8.20
2022-09-28T00:16:07.428Z,12.10
2022-09-28T00:22:09.262Z,7.23
2022-09-28T00:28:10.952Z,11.30
2022-09-28T00:34:13.285Z,8.07
2022-09-28T00:40:15.128Z,7.90
2022-09-28T00:46:33.881Z,13.10
2022-09-28T00:53:06.507Z,14.10
2022-09-28T00:59:09.511Z,10.90
2022-09-28T01:05:12.053Z,9.63
2022-09-28T01:11:13.778Z,11.70
2022-09-28T01:17:28.806Z,11.60
2022-09-28T01:23:48.756Z,11.90
2022-09-28T01:30:08.719Z,10.80
2022-09-28T01:36:39.779Z,9.87
2022-09-28T01:42:44.369Z,12.53
2022-09-28T01:49:27.802Z,13.23
2022-09-28T01:55:37.508Z,6.93
2022-09-28T02:01:53.926Z,15.50
2022-09-28T02:08:04.448Z,8.50
2022-09-28T02:14:09.958Z,12.93
2022-09-28T02:20:11.910Z,9.17
2022-09-28T02:26:21.245Z,12.07
2022-09-28T02:32:26.319Z,9.33
2022-09-28T02:38:28.059Z,11.40
2022-09-28T02:44:54.048Z,11.93
2022-09-28T02:51:20.840Z,6.33
2022-09-28T02:57:46.990Z,11.40
2022-09-28T03:04:09.164Z,6.27
2022-09-28T03:10:16.820Z,7.43
2022-09-28T03:16:19.983Z,7.17
2022-09-28T03:22:21.831Z,8.60
2022-09-28T03:28:23.662Z,8.07
2022-09-28T03:34:25.403Z,9.40
2022-09-28T03:40:27.291Z,9.70
2022-09-28T03:46:29.102Z,16.27
2022-09-28T03:52:30.801Z,16.63
2022-09-28T03:58:32.808Z,11.50
2022-09-28T04:04:34.613Z,8.23
2022-09-28T04:10:36.461Z,7.47
2022-09-28T04:16:38.455Z,16.00
2022-09-28T04:22:40.350Z,16.53
2022-09-28T04:29:06.188Z,14.50
2022-09-28T04:35:11.658Z,12.20
2022-09-28T04:41:13.374Z,11.73
2022-09-28T04:47:15.106Z,20.43
2022-09-28T04:53:16.859Z,14.33
2022-09-28T04:59:18.768Z,10.83
2022-09-28T05:05:21.212Z,12.10
2022-09-28T05:11:23.318Z,13.53
2022-09-28T05:17:25.271Z,19.27
2022-09-28T05:23:27.196Z,19.20
2022-09-28T05:29:32.071Z,16.93
2022-09-28T05:35:35.119Z,17.70
2022-09-28T05:41:38.842Z,14.93
2022-09-28T05:47:43.031Z,15.33
2022-09-28T05:53:44.865Z,17.83
2022-09-28T05:59:46.716Z,14.00
2022-09-28T06:12:05.339Z,14.63
2022-09-28T06:18:11.153Z,16.17
2022-09-28T06:24:13.066Z,10.90
2022-09-28T06:30:14.919Z,41.87
2022-09-28T06:36:29.391Z,13.17
2022-09-28T06:42:31.282Z,10.77
2022-09-28T06:48:36.515Z,11.17
2022-09-28T06:54:38.359Z,11.30
2022-09-28T07:00:50.645Z,11.33
2022-09-28T07:19:28.012Z,11.33
2022-09-28T07:25:32.506Z,8.43
2022-09-28T07:31:35.350Z,9.13
2022-09-28T07:44:42.692Z,6.33
2022-09-28T07:50:57.582Z,10.83
2022-09-28T08:16:08.628Z,9.10
2022-09-28T08:29:01.083Z,6.63
2022-09-28T08:35:04.257Z,5.60
2022-09-28T08:47:50.714Z,4.23
2022-09-28T08:54:06.853Z,4.22
2022-09-28T11:08:51.232Z,1.98
2022-09-28T11:15:03.270Z,1.95
2022-09-28T11:27:34.354Z,1.13
2022-09-28T11:33:47.769Z,4.60
2022-09-28T11:40:14.237Z,2.50
2022-09-28T12:19:08.986Z,10.85
2022-09-28T12:25:24.762Z,11.23
2022-09-28T12:51:03.622Z,11.88
2022-09-28T13:10:41.025Z,2.78
2022-09-28T13:17:21.558Z,4.03
2022-09-28T13:29:51.951Z,4.47
2022-09-28T13:36:02.530Z,8.50
2022-09-28T13:42:09.834Z,8.10
2022-09-28T13:48:15.670Z,6.97
2022-09-28T15:05:54.487Z,14.23
2022-09-28T15:12:08.762Z,23.80
2022-09-28T16:35:21.839Z,16.87
2022-09-28T16:47:41.078Z,15.70
2022-09-28T16:54:02.198Z,6.67
2022-09-28T17:00:04.569Z,21.60
2022-09-28T17:06:06.688Z,14.60
2022-09-28T17:12:27.387Z,38.93
2022-09-28T17:18:32.060Z,20.77
2022-09-28T17:24:34.413Z,23.63
2022-09-28T17:30:36.673Z,27.17
2022-09-28T17:36:41.002Z,39.53
2022-09-28T17:42:42.993Z,40.03
2022-09-28T17:48:47.165Z,23.43
2022-09-28T17:54:48.917Z,30.43
2022-09-28T18:00:52.015Z,26.00
2022-09-28T18:06:53.874Z,24.20
2022-09-28T18:13:06.086Z,16.07
2022-09-28T18:19:07.975Z,103.63
2022-09-28T18:25:11.214Z,99.07
2022-09-28T18:31:16.193Z,59.87
2022-09-28T18:37:18.066Z,46.83
2022-09-28T18:43:19.887Z,20.67
2022-09-28T18:49:24.899Z,43.70
2022-09-28T18:55:27.102Z,58.23
2022-09-28T19:01:30.382Z,39.53
2022-09-28T19:07:33.838Z,34.43
2022-09-28T19:13:36.398Z,44.50
2022-09-28T19:19:38.472Z,44.17
2022-09-28T19:25:41.133Z,38.70
2022-09-28T19:31:43.691Z,46.63
2022-09-28T19:37:46.996Z,46.07
2022-09-28T19:43:48.759Z,37.87
2022-09-28T19:49:50.584Z,36.20
2022-09-28T19:55:57.455Z,23.07
2022-09-28T20:02:01.416Z,26.40
2022-09-28T20:14:09.784Z,34.87
2022-09-28T20:20:11.684Z,23.20
2022-09-28T20:26:14.871Z,35.43
2022-09-28T20:32:16.760Z,31.70
2022-09-28T20:38:18.602Z,44.10
2022-09-28T20:44:20.544Z,25.97
2022-09-28T20:50:23.663Z,19.83
2022-09-28T20:56:39.033Z,16.77
2022-09-28T21:02:40.937Z,15.90
2022-09-28T21:08:44.456Z,18.77
2022-09-28T21:14:46.292Z,18.23
2022-09-28T21:20:49.981Z,19.73
2022-09-28T21:26:51.822Z,15.60
2022-09-28T21:32:53.818Z,17.50
2022-09-28T21:38:56.228Z,15.27
2022-09-28T21:44:59.536Z,11.50
2022-09-28T21:51:03.959Z,12.37
2022-09-28T21:57:05.723Z,16.97
2022-09-28T22:03:07.680Z,12.77
2022-09-28T22:09:09.602Z,12.43
2022-09-28T22:15:11.517Z,10.33
2022-09-28T22:21:32.105Z,28.13
2022-09-28T22:27:33.874Z,14.60
2022-09-28T22:33:35.760Z,17.13
2022-09-28T22:39:38.032Z,20.97
2022-09-28T22:45:39.937Z,13.63
2022-09-28T22:51:41.731Z,13.47
2022-09-28T22:57:43.494Z,21.70
2022-09-28T23:03:45.961Z,18.87
2022-09-28T23:09:47.712Z,21.20
2022-09-28T23:15:57.605Z,17.10
2022-09-28T23:21:59.531Z,14.93
2022-09-28T23:28:01.526Z,14.17
2022-09-28T23:34:05.977Z,9.67
2022-09-28T23:40:07.932Z,9.77
2022-09-28T23:46:09.690Z,14.10
2022-09-28T23:52:11.694Z,16.47
2022-09-28T23:58:13.568Z,23.60
